sensor_id;sensor_type;location;lat;lon;timestamp;temperature;humidity
32753;DHT22;19121;52.428;10.816;2023-04-03T00:00:05;17.80;44.10
32753;DHT22;19121;52.428;10.816;2023-04-03T00:02:32;17.90;44.10
32753;DHT22;19121;52.428;10.816;2023-04-03T00:04:57;17.90;44.70
32753;DHT22;19121;52.428;10.816;2023-04-03T00:07:22;17.80;44.10
32753;DHT22;19121;52.428;10.816;2023-04-03T00:09:48;17.90;44.10
32753;DHT22;19121;52.428;10.816;2023-04-03T00:12:13;17.80;44.10
32753;DHT22;19121;52.428;10.816;2023-04-03T00:14:39;17.80;44.10
32753;DHT22;19121;52.428;10.816;2023-04-03T00:17:04;17.80;44.10
32753;DHT22;19121;52.428;10.816;2023-04-03T00:19:30;17.80;44.10
32753;DHT22;19121;52.428;10.816;2023-04-03T00:21:55;17.80;44.10
32753;DHT22;19121;52.428;10.816;2023-04-03T00:24:20;17.80;44.00
32753;DHT22;19121;52.428;10.816;2023-04-03T00:26:46;17.80;44.10
32753;DHT22;19121;52.428;10.816;2023-04-03T00:29:11;17.80;44.10
32753;DHT22;19121;52.428;10.816;2023-04-03T00:31:37;17.80;44.10
32753;DHT22;19121;52.428;10.816;2023-04-03T00:34:02;17.80;44.10
32753;DHT22;19121;52.428;10.816;2023-04-03T00:36:28;17.70;44.00
32753;DHT22;19121;52.428;10.816;2023-04-03T00:38:53;17.80;44.10
32753;DHT22;19121;52.428;10.816;2023-04-03T00:41:18;17.70;44.00
32753;DHT22;19121;52.428;10.816;2023-04-03T00:43:44;17.70;44.00
32753;DHT22;19121;52.428;10.816;2023-04-03T00:46:10;17.70;44.00
32753;DHT22;19121;52.428;10.816;2023-04-03T00:48:37;17.70;44.00
32753;DHT22;19121;52.428;10.816;2023-04-03T00:51:05;17.70;44.00
32753;DHT22;19121;52.428;10.816;2023-04-03T00:53:43;17.70;44.00
32753;DHT22;19121;52.428;10.816;2023-04-03T00:56:10;17.70;44.00
32753;DHT22;19121;52.428;10.816;2023-04-03T00:58:37;17.70;44.00
32753;DHT22;19121;52.428;10.816;2023-04-03T01:01:05;17.70;44.00
32753;DHT22;19121;52.428;10.816;2023-04-03T01:03:32;17.70;44.00
32753;DHT22;19121;52.428;10.816;2023-04-03T01:05:58;17.70;44.00
32753;DHT22;19121;52.428;10.816;2023-04-03T01:08:23;17.70;44.00
32753;DHT22;19121;52.428;10.816;2023-04-03T01:10:49;17.70;44.00
32753;DHT22;19121;52.428;10.816;2023-04-03T01:15:46;17.70;44.00
32753;DHT22;19121;52.428;10.816;2023-04-03T01:18:11;17.60;44.00
32753;DHT22;19121;52.428;10.816;2023-04-03T01:20:43;17.60;44.00
32753;DHT22;19121;52.428;10.816;2023-04-03T01:25:50;17.60;44.00
32753;DHT22;19121;52.428;10.816;2023-04-03T01:28:18;17.60;44.00
32753;DHT22;19121;52.428;10.816;2023-04-03T01:30:48;17.60;44.00
32753;DHT22;19121;52.428;10.816;2023-04-03T01:33:15;17.60;44.00
32753;DHT22;19121;52.428;10.816;2023-04-03T01:35:41;17.60;44.10
32753;DHT22;19121;52.428;10.816;2023-04-03T01:38:06;17.60;44.00
32753;DHT22;19121;52.428;10.816;2023-04-03T01:40:32;17.60;44.00
32753;DHT22;19121;52.428;10.816;2023-04-03T01:42:57;17.60;44.00
32753;DHT22;19121;52.428;10.816;2023-04-03T01:45:23;17.60;44.00
32753;DHT22;19121;52.428;10.816;2023-04-03T01:47:48;17.60;44.00
32753;DHT22;19121;52.428;10.816;2023-04-03T01:50:13;17.60;44.10
32753;DHT22;19121;52.428;10.816;2023-04-03T01:52:39;17.50;44.10
32753;DHT22;19121;52.428;10.816;2023-04-03T01:55:05;17.50;44.00
32753;DHT22;19121;52.428;10.816;2023-04-03T01:57:30;17.50;44.10
32753;DHT22;19121;52.428;10.816;2023-04-03T01:59:56;17.50;44.10
32753;DHT22;19121;52.428;10.816;2023-04-03T02:02:21;17.50;44.10
32753;DHT22;19121;52.428;10.816;2023-04-03T02:04:47;17.50;44.00
32753;DHT22;19121;52.428;10.816;2023-04-03T02:07:12;17.50;44.10
32753;DHT22;19121;52.428;10.816;2023-04-03T02:09:37;17.50;44.10
32753;DHT22;19121;52.428;10.816;2023-04-03T02:12:03;17.50;44.10
32753;DHT22;19121;52.428;10.816;2023-04-03T02:14:28;17.50;44.00
32753;DHT22;19121;52.428;10.816;2023-04-03T02:16:54;17.50;43.90
32753;DHT22;19121;52.428;10.816;2023-04-03T02:19:20;17.50;44.00
32753;DHT22;19121;52.428;10.816;2023-04-03T02:21:45;17.50;44.00
32753;DHT22;19121;52.428;10.816;2023-04-03T02:24:11;17.50;44.10
32753;DHT22;19121;52.428;10.816;2023-04-03T02:26:36;17.50;44.10
32753;DHT22;19121;52.428;10.816;2023-04-03T02:29:02;17.50;44.10
32753;DHT22;19121;52.428;10.816;2023-04-03T02:31:27;17.50;44.10
32753;DHT22;19121;52.428;10.816;2023-04-03T02:33:53;17.50;44.10
32753;DHT22;19121;52.428;10.816;2023-04-03T02:36:18;17.50;44.10
32753;DHT22;19121;52.428;10.816;2023-04-03T02:38:44;17.50;44.10
32753;DHT22;19121;52.428;10.816;2023-04-03T02:41:11;17.50;44.10
32753;DHT22;19121;52.428;10.816;2023-04-03T02:43:36;17.50;44.10
32753;DHT22;19121;52.428;10.816;2023-04-03T02:46:02;17.50;44.60
32753;DHT22;19121;52.428;10.816;2023-04-03T02:48:28;17.50;44.00
32753;DHT22;19121;52.428;10.816;2023-04-03T02:50:53;17.50;43.90
32753;DHT22;19121;52.428;10.816;2023-04-03T02:53:18;17.50;43.80
32753;DHT22;19121;52.428;10.816;2023-04-03T02:55:44;17.50;43.80
32753;DHT22;19121;52.428;10.816;2023-04-03T02:58:10;17.50;43.80
32753;DHT22;19121;52.428;10.816;2023-04-03T03:00:36;17.50;43.70
32753;DHT22;19121;52.428;10.816;2023-04-03T03:03:01;17.50;43.70
32753;DHT22;19121;52.428;10.816;2023-04-03T03:05:27;17.50;43.60
32753;DHT22;19121;52.428;10.816;2023-04-03T03:07:52;17.50;43.60
32753;DHT22;19121;52.428;10.816;2023-04-03T03:10:18;17.50;43.60
32753;DHT22;19121;52.428;10.816;2023-04-03T03:12:43;17.50;43.60
32753;DHT22;19121;52.428;10.816;2023-04-03T03:15:09;17.50;43.60
32753;DHT22;19121;52.428;10.816;2023-04-03T03:17:34;17.50;43.50
32753;DHT22;19121;52.428;10.816;2023-04-03T03:20:01;17.50;43.60
32753;DHT22;19121;52.428;10.816;2023-04-03T03:22:27;17.50;43.60
32753;DHT22;19121;52.428;10.816;2023-04-03T03:24:53;17.50;43.60
32753;DHT22;19121;52.428;10.816;2023-04-03T03:27:18;17.50;43.60
32753;DHT22;19121;52.428;10.816;2023-04-03T03:29:43;17.40;43.50
32753;DHT22;19121;52.428;10.816;2023-04-03T03:32:09;17.40;43.50
32753;DHT22;19121;52.428;10.816;2023-04-03T03:34:34;17.40;43.50
32753;DHT22;19121;52.428;10.816;2023-04-03T03:37:00;17.50;43.60
32753;DHT22;19121;52.428;10.816;2023-04-03T03:39:25;17.40;43.50
32753;DHT22;19121;52.428;10.816;2023-04-03T03:41:51;17.40;43.50
32753;DHT22;19121;52.428;10.816;2023-04-03T03:44:18;17.50;43.70
32753;DHT22;19121;52.428;10.816;2023-04-03T03:46:44;17.40;43.60
32753;DHT22;19121;52.428;10.816;2023-04-03T03:49:10;17.40;43.70
32753;DHT22;19121;52.428;10.816;2023-04-03T03:51:36;17.40;43.70
32753;DHT22;19121;52.428;10.816;2023-04-03T03:54:03;17.40;43.70
32753;DHT22;19121;52.428;10.816;2023-04-03T03:56:28;17.40;43.70
32753;DHT22;19121;52.428;10.816;2023-04-03T03:58:54;17.40;43.70
32753;DHT22;19121;52.428;10.816;2023-04-03T04:01:21;17.40;43.70
32753;DHT22;19121;52.428;10.816;2023-04-03T04:03:47;17.40;43.70
32753;DHT22;19121;52.428;10.816;2023-04-03T04:06:13;17.40;43.60
32753;DHT22;19121;52.428;10.816;2023-04-03T04:08:38;17.40;43.60
32753;DHT22;19121;52.428;10.816;2023-04-03T04:11:04;17.40;43.60
32753;DHT22;19121;52.428;10.816;2023-04-03T04:13:29;17.40;43.50
32753;DHT22;19121;52.428;10.816;2023-04-03T04:15:55;17.40;43.50
32753;DHT22;19121;52.428;10.816;2023-04-03T04:18:20;17.40;43.50
32753;DHT22;19121;52.428;10.816;2023-04-03T04:20:48;17.40;43.50
32753;DHT22;19121;52.428;10.816;2023-04-03T04:23:13;17.40;43.50
32753;DHT22;19121;52.428;10.816;2023-04-03T04:25:39;17.40;43.40
32753;DHT22;19121;52.428;10.816;2023-04-03T04:28:04;17.40;43.40
32753;DHT22;19121;52.428;10.816;2023-04-03T04:30:30;17.40;43.40
32753;DHT22;19121;52.428;10.816;2023-04-03T04:32:55;17.40;43.40
32753;DHT22;19121;52.428;10.816;2023-04-03T04:35:21;17.40;43.40
32753;DHT22;19121;52.428;10.816;2023-04-03T04:37:46;17.40;43.30
32753;DHT22;19121;52.428;10.816;2023-04-03T04:40:12;17.40;43.30
32753;DHT22;19121;52.428;10.816;2023-04-03T04:42:37;17.40;43.30
32753;DHT22;19121;52.428;10.816;2023-04-03T04:45:03;17.40;43.30
32753;DHT22;19121;52.428;10.816;2023-04-03T04:47:28;17.40;43.30
32753;DHT22;19121;52.428;10.816;2023-04-03T04:49:54;17.40;43.30
32753;DHT22;19121;52.428;10.816;2023-04-03T04:52:20;17.40;43.30
32753;DHT22;19121;52.428;10.816;2023-04-03T04:54:45;17.40;43.20
32753;DHT22;19121;52.428;10.816;2023-04-03T04:57:11;17.40;43.20
32753;DHT22;19121;52.428;10.816;2023-04-03T04:59:36;17.40;43.30
32753;DHT22;19121;52.428;10.816;2023-04-03T05:02:02;17.40;43.30
32753;DHT22;19121;52.428;10.816;2023-04-03T05:04:27;17.40;43.30
32753;DHT22;19121;52.428;10.816;2023-04-03T05:06:53;17.40;43.30
32753;DHT22;19121;52.428;10.816;2023-04-03T05:09:18;17.40;43.30
32753;DHT22;19121;52.428;10.816;2023-04-03T05:11:45;17.40;43.40
32753;DHT22;19121;52.428;10.816;2023-04-03T05:14:11;17.40;43.30
32753;DHT22;19121;52.428;10.816;2023-04-03T05:16:36;17.40;43.40
32753;DHT22;19121;52.428;10.816;2023-04-03T05:19:02;17.40;43.40
32753;DHT22;19121;52.428;10.816;2023-04-03T05:21:27;17.40;43.40
32753;DHT22;19121;52.428;10.816;2023-04-03T05:23:57;17.40;43.30
32753;DHT22;19121;52.428;10.816;2023-04-03T05:26:23;17.40;43.30
32753;DHT22;19121;52.428;10.816;2023-04-03T05:28:48;17.40;43.30
32753;DHT22;19121;52.428;10.816;2023-04-03T05:31:14;17.40;43.30
32753;DHT22;19121;52.428;10.816;2023-04-03T05:33:40;17.40;43.20
32753;DHT22;19121;52.428;10.816;2023-04-03T05:36:05;17.40;43.20
32753;DHT22;19121;52.428;10.816;2023-04-03T05:38:31;17.50;43.20
32753;DHT22;19121;52.428;10.816;2023-04-03T05:40:57;17.50;43.20
32753;DHT22;19121;52.428;10.816;2023-04-03T05:43:22;17.50;43.20
32753;DHT22;19121;52.428;10.816;2023-04-03T05:45:48;17.50;43.20
32753;DHT22;19121;52.428;10.816;2023-04-03T05:48:13;17.50;43.20
32753;DHT22;19121;52.428;10.816;2023-04-03T05:50:39;17.60;43.20
32753;DHT22;19121;52.428;10.816;2023-04-03T05:53:06;17.60;43.10
32753;DHT22;19121;52.428;10.816;2023-04-03T05:55:32;17.70;43.10
32753;DHT22;19121;52.428;10.816;2023-04-03T05:57:57;17.70;43.20
32753;DHT22;19121;52.428;10.816;2023-04-03T06:00:23;17.80;43.20
32753;DHT22;19121;52.428;10.816;2023-04-03T06:02:49;17.80;43.20
32753;DHT22;19121;52.428;10.816;2023-04-03T06:05:14;17.90;43.30
32753;DHT22;19121;52.428;10.816;2023-04-03T06:07:40;17.90;43.60
32753;DHT22;19121;52.428;10.816;2023-04-03T06:10:05;18.00;43.40
32753;DHT22;19121;52.428;10.816;2023-04-03T06:12:31;18.10;43.70
32753;DHT22;19121;52.428;10.816;2023-04-03T06:14:57;18.10;43.60
32753;DHT22;19121;52.428;10.816;2023-04-03T06:17:23;18.20;43.10
32753;DHT22;19121;52.428;10.816;2023-04-03T06:19:48;18.20;43.10
32753;DHT22;19121;52.428;10.816;2023-04-03T06:22:15;18.30;43.30
32753;DHT22;19121;52.428;10.816;2023-04-03T06:24:40;18.30;43.30
32753;DHT22;19121;52.428;10.816;2023-04-03T06:27:06;18.40;43.20
32753;DHT22;19121;52.428;10.816;2023-04-03T06:29:32;18.40;43.20
32753;DHT22;19121;52.428;10.816;2023-04-03T06:31:57;18.50;43.30
32753;DHT22;19121;52.428;10.816;2023-04-03T06:34:23;18.60;43.40
32753;DHT22;19121;52.428;10.816;2023-04-03T06:36:48;18.60;43.40
32753;DHT22;19121;52.428;10.816;2023-04-03T06:39:17;18.60;43.30
32753;DHT22;19121;52.428;10.816;2023-04-03T06:41:43;18.70;43.70
32753;DHT22;19121;52.428;10.816;2023-04-03T06:44:09;18.70;43.80
32753;DHT22;19121;52.428;10.816;2023-04-03T06:46:36;18.60;43.80
32753;DHT22;19121;52.428;10.816;2023-04-03T06:49:02;18.70;43.80
32753;DHT22;19121;52.428;10.816;2023-04-03T06:51:28;18.70;43.80
32753;DHT22;19121;52.428;10.816;2023-04-03T06:53:56;18.80;43.90
32753;DHT22;19121;52.428;10.816;2023-04-03T06:56:22;19.00;44.00
32753;DHT22;19121;52.428;10.816;2023-04-03T06:58:47;19.10;43.70
32753;DHT22;19121;52.428;10.816;2023-04-03T07:01:14;19.10;43.40
32753;DHT22;19121;52.428;10.816;2023-04-03T07:03:39;19.20;43.40
32753;DHT22;19121;52.428;10.816;2023-04-03T07:06:05;19.20;43.30
32753;DHT22;19121;52.428;10.816;2023-04-03T07:08:32;19.30;43.20
32753;DHT22;19121;52.428;10.816;2023-04-03T07:10:58;19.40;43.10
32753;DHT22;19121;52.428;10.816;2023-04-03T07:13:24;19.50;43.10
32753;DHT22;19121;52.428;10.816;2023-04-03T07:15:49;19.50;43.00
32753;DHT22;19121;52.428;10.816;2023-04-03T07:18:15;19.60;43.00
32753;DHT22;19121;52.428;10.816;2023-04-03T07:20:42;19.60;42.60
32753;DHT22;19121;52.428;10.816;2023-04-03T07:23:07;19.70;42.80
32753;DHT22;19121;52.428;10.816;2023-04-03T07:25:33;19.70;42.90
32753;DHT22;19121;52.428;10.816;2023-04-03T07:27:58;19.80;43.00
32753;DHT22;19121;52.428;10.816;2023-04-03T07:30:24;19.80;43.00
32753;DHT22;19121;52.428;10.816;2023-04-03T07:32:49;19.90;43.10
32753;DHT22;19121;52.428;10.816;2023-04-03T07:35:15;20.00;42.40
32753;DHT22;19121;52.428;10.816;2023-04-03T07:37:41;20.00;42.40
32753;DHT22;19121;52.428;10.816;2023-04-03T07:40:07;20.00;42.40
32753;DHT22;19121;52.428;10.816;2023-04-03T07:42:34;20.10;42.30
32753;DHT22;19121;52.428;10.816;2023-04-03T07:45:00;20.10;42.30
32753;DHT22;19121;52.428;10.816;2023-04-03T07:47:25;20.20;42.50
32753;DHT22;19121;52.428;10.816;2023-04-03T07:49:51;20.30;42.50
32753;DHT22;19121;52.428;10.816;2023-04-03T07:52:17;20.30;42.30
32753;DHT22;19121;52.428;10.816;2023-04-03T07:54:42;20.30;42.20
32753;DHT22;19121;52.428;10.816;2023-04-03T07:57:08;20.40;42.20
32753;DHT22;19121;52.428;10.816;2023-04-03T07:59:33;20.50;42.20
32753;DHT22;19121;52.428;10.816;2023-04-03T08:01:59;20.50;42.20
32753;DHT22;19121;52.428;10.816;2023-04-03T08:04:24;20.50;42.10
32753;DHT22;19121;52.428;10.816;2023-04-03T08:06:51;20.60;42.00
32753;DHT22;19121;52.428;10.816;2023-04-03T08:09:17;20.60;42.00
32753;DHT22;19121;52.428;10.816;2023-04-03T08:11:42;20.60;41.80
32753;DHT22;19121;52.428;10.816;2023-04-03T08:14:07;20.70;41.70
32753;DHT22;19121;52.428;10.816;2023-04-03T08:16:33;20.80;41.70
32753;DHT22;19121;52.428;10.816;2023-04-03T08:18:58;20.80;41.80
32753;DHT22;19121;52.428;10.816;2023-04-03T08:21:24;20.90;41.60
32753;DHT22;19121;52.428;10.816;2023-04-03T08:23:51;20.90;41.70
32753;DHT22;19121;52.428;10.816;2023-04-03T08:26:18;21.00;41.60
32753;DHT22;19121;52.428;10.816;2023-04-03T08:28:44;21.00;41.40
32753;DHT22;19121;52.428;10.816;2023-04-03T08:31:10;21.10;41.30
32753;DHT22;19121;52.428;10.816;2023-04-03T08:33:37;21.10;41.30
32753;DHT22;19121;52.428;10.816;2023-04-03T08:36:06;21.10;41.20
32753;DHT22;19121;52.428;10.816;2023-04-03T08:38:32;21.10;41.20
32753;DHT22;19121;52.428;10.816;2023-04-03T08:41:02;21.20;41.30
32753;DHT22;19121;52.428;10.816;2023-04-03T08:43:33;21.20;41.90
32753;DHT22;19121;52.428;10.816;2023-04-03T08:46:00;21.30;41.20
32753;DHT22;19121;52.428;10.816;2023-04-03T08:48:27;21.30;41.10
32753;DHT22;19121;52.428;10.816;2023-04-03T08:50:56;21.40;41.00
32753;DHT22;19121;52.428;10.816;2023-04-03T08:53:23;21.40;40.80
32753;DHT22;19121;52.428;10.816;2023-04-03T08:55:50;21.50;40.90
32753;DHT22;19121;52.428;10.816;2023-04-03T08:58:18;21.50;40.90
32753;DHT22;19121;52.428;10.816;2023-04-03T09:00:49;21.60;40.60
32753;DHT22;19121;52.428;10.816;2023-04-03T09:03:15;21.60;40.30
32753;DHT22;19121;52.428;10.816;2023-04-03T09:08:24;21.60;40.30
32753;DHT22;19121;52.428;10.816;2023-04-03T09:10:52;21.60;40.30
32753;DHT22;19121;52.428;10.816;2023-04-03T09:16:39;21.60;40.90
32753;DHT22;19121;52.428;10.816;2023-04-03T09:21:52;21.70;40.80
32753;DHT22;19121;52.428;10.816;2023-04-03T09:24:18;21.70;41.10
32753;DHT22;19121;52.428;10.816;2023-04-03T09:27:05;21.70;40.50
32753;DHT22;19121;52.428;10.816;2023-04-03T09:29:29;21.70;40.50
32753;DHT22;19121;52.428;10.816;2023-04-03T09:32:02;21.70;40.60
32753;DHT22;19121;52.428;10.816;2023-04-03T09:34:30;21.70;40.80
32753;DHT22;19121;52.428;10.816;2023-04-03T09:36:57;21.70;41.10
32753;DHT22;19121;52.428;10.816;2023-04-03T09:39:28;21.60;41.60
32753;DHT22;19121;52.428;10.816;2023-04-03T09:42:00;21.60;41.80
32753;DHT22;19121;52.428;10.816;2023-04-03T09:44:30;21.50;41.40
32753;DHT22;19121;52.428;10.816;2023-04-03T09:46:56;21.40;41.80
32753;DHT22;19121;52.428;10.816;2023-04-03T09:49:22;21.40;42.50
32753;DHT22;19121;52.428;10.816;2023-04-03T09:51:47;21.20;42.90
32753;DHT22;19121;52.428;10.816;2023-04-03T09:54:24;21.10;43.30
32753;DHT22;19121;52.428;10.816;2023-04-03T09:56:50;21.10;43.70
32753;DHT22;19121;52.428;10.816;2023-04-03T09:59:16;21.00;43.10
32753;DHT22;19121;52.428;10.816;2023-04-03T10:01:43;21.00;43.10
32753;DHT22;19121;52.428;10.816;2023-04-03T10:04:11;21.00;43.30
32753;DHT22;19121;52.428;10.816;2023-04-03T10:06:38;21.00;43.20
32753;DHT22;19121;52.428;10.816;2023-04-03T10:09:25;21.00;42.90
32753;DHT22;19121;52.428;10.816;2023-04-03T10:12:03;21.00;42.80
32753;DHT22;19121;52.428;10.816;2023-04-03T10:14:31;21.00;43.30
32753;DHT22;19121;52.428;10.816;2023-04-03T10:16:59;21.00;43.30
32753;DHT22;19121;52.428;10.816;2023-04-03T10:19:31;21.00;43.40
32753;DHT22;19121;52.428;10.816;2023-04-03T10:21:59;21.00;42.80
32753;DHT22;19121;52.428;10.816;2023-04-03T10:24:36;21.00;42.50
32753;DHT22;19121;52.428;10.816;2023-04-03T10:27:08;21.00;42.40
32753;DHT22;19121;52.428;10.816;2023-04-03T10:29:52;21.00;42.00
32753;DHT22;19121;52.428;10.816;2023-04-03T10:35:15;21.00;42.20
32753;DHT22;19121;52.428;10.816;2023-04-03T10:40:34;20.90;42.10
32753;DHT22;19121;52.428;10.816;2023-04-03T10:43:03;20.80;42.00
32753;DHT22;19121;52.428;10.816;2023-04-03T10:48:26;20.80;41.70
32753;DHT22;19121;52.428;10.816;2023-04-03T10:56:30;20.70;41.40
32753;DHT22;19121;52.428;10.816;2023-04-03T11:01:33;20.70;41.60
32753;DHT22;19121;52.428;10.816;2023-04-03T11:03:59;20.70;41.60
32753;DHT22;19121;52.428;10.816;2023-04-03T11:06:39;20.70;41.60
32753;DHT22;19121;52.428;10.816;2023-04-03T11:09:26;20.70;41.80
32753;DHT22;19121;52.428;10.816;2023-04-03T11:11:53;20.70;41.70
32753;DHT22;19121;52.428;10.816;2023-04-03T11:14:28;20.70;41.60
32753;DHT22;19121;52.428;10.816;2023-04-03T11:16:59;20.70;41.50
32753;DHT22;19121;52.428;10.816;2023-04-03T11:19:34;20.70;41.60
32753;DHT22;19121;52.428;10.816;2023-04-03T11:22:03;20.60;41.60
32753;DHT22;19121;52.428;10.816;2023-04-03T11:24:32;20.60;41.60
32753;DHT22;19121;52.428;10.816;2023-04-03T11:26:58;20.60;41.70
32753;DHT22;19121;52.428;10.816;2023-04-03T11:29:34;20.60;41.70
32753;DHT22;19121;52.428;10.816;2023-04-03T11:34:33;20.60;41.70
32753;DHT22;19121;52.428;10.816;2023-04-03T11:37:01;20.60;41.70
32753;DHT22;19121;52.428;10.816;2023-04-03T11:39:32;20.60;41.70
32753;DHT22;19121;52.428;10.816;2023-04-03T11:42:15;20.70;41.70
32753;DHT22;19121;52.428;10.816;2023-04-03T11:44:41;20.60;41.70
32753;DHT22;19121;52.428;10.816;2023-04-03T11:47:07;20.60;41.70
32753;DHT22;19121;52.428;10.816;2023-04-03T11:57:43;20.60;42.20
32753;DHT22;19121;52.428;10.816;2023-04-03T12:02:53;20.70;42.30
32753;DHT22;19121;52.428;10.816;2023-04-03T12:05:28;20.60;42.10
32753;DHT22;19121;52.428;10.816;2023-04-03T12:08:15;20.60;42.00
32753;DHT22;19121;52.428;10.816;2023-04-03T12:10:41;20.60;41.90
32753;DHT22;19121;52.428;10.816;2023-04-03T12:13:12;20.60;41.80
32753;DHT22;19121;52.428;10.816;2023-04-03T12:25:49;20.60;41.80
32753;DHT22;19121;52.428;10.816;2023-04-03T12:28:15;20.60;41.70
32753;DHT22;19121;52.428;10.816;2023-04-03T12:30:41;20.60;41.50
32753;DHT22;19121;52.428;10.816;2023-04-03T12:35:37;20.60;41.80
32753;DHT22;19121;52.428;10.816;2023-04-03T12:38:30;20.60;41.90
32753;DHT22;19121;52.428;10.816;2023-04-03T12:41:04;20.60;41.90
32753;DHT22;19121;52.428;10.816;2023-04-03T12:46:21;20.60;41.90
32753;DHT22;19121;52.428;10.816;2023-04-03T12:53:51;20.60;42.10
32753;DHT22;19121;52.428;10.816;2023-04-03T12:56:28;20.60;42.10
32753;DHT22;19121;52.428;10.816;2023-04-03T12:58:55;20.60;42.00
32753;DHT22;19121;52.428;10.816;2023-04-03T13:01:21;20.60;42.10
32753;DHT22;19121;52.428;10.816;2023-04-03T13:03:49;20.60;42.00
32753;DHT22;19121;52.428;10.816;2023-04-03T13:06:19;20.60;42.00
32753;DHT22;19121;52.428;10.816;2023-04-03T13:08:53;20.60;42.00
32753;DHT22;19121;52.428;10.816;2023-04-03T13:11:33;20.60;42.10
32753;DHT22;19121;52.428;10.816;2023-04-03T13:14:05;20.60;42.10
32753;DHT22;19121;52.428;10.816;2023-04-03T13:16:34;20.60;42.10
32753;DHT22;19121;52.428;10.816;2023-04-03T13:18:59;20.60;42.10
32753;DHT22;19121;52.428;10.816;2023-04-03T13:21:26;20.60;42.00
32753;DHT22;19121;52.428;10.816;2023-04-03T13:23:54;20.60;42.10
32753;DHT22;19121;52.428;10.816;2023-04-03T13:26:21;20.50;42.00
32753;DHT22;19121;52.428;10.816;2023-04-03T13:28:47;20.50;42.10
32753;DHT22;19121;52.428;10.816;2023-04-03T13:36:18;20.50;42.00
32753;DHT22;19121;52.428;10.816;2023-04-03T13:38:44;20.50;41.80
32753;DHT22;19121;52.428;10.816;2023-04-03T13:41:26;20.50;41.80
32753;DHT22;19121;52.428;10.816;2023-04-03T13:43:54;20.50;41.90
32753;DHT22;19121;52.428;10.816;2023-04-03T13:46:22;20.50;41.80
32753;DHT22;19121;52.428;10.816;2023-04-03T13:48:51;20.50;41.80
32753;DHT22;19121;52.428;10.816;2023-04-03T13:51:24;20.50;41.80
32753;DHT22;19121;52.428;10.816;2023-04-03T13:56:21;20.50;42.00
32753;DHT22;19121;52.428;10.816;2023-04-03T13:58:54;20.50;42.00
32753;DHT22;19121;52.428;10.816;2023-04-03T14:01:21;20.50;41.90
32753;DHT22;19121;52.428;10.816;2023-04-03T14:03:56;20.50;41.90
32753;DHT22;19121;52.428;10.816;2023-04-03T14:06:21;20.50;42.00
32753;DHT22;19121;52.428;10.816;2023-04-03T14:08:47;20.50;42.00
32753;DHT22;19121;52.428;10.816;2023-04-03T14:11:18;20.50;41.90
32753;DHT22;19121;52.428;10.816;2023-04-03T14:13:45;20.50;42.00
32753;DHT22;19121;52.428;10.816;2023-04-03T14:16:12;20.50;42.10
32753;DHT22;19121;52.428;10.816;2023-04-03T14:18:38;20.50;42.00
32753;DHT22;19121;52.428;10.816;2023-04-03T14:21:03;20.50;42.00
32753;DHT22;19121;52.428;10.816;2023-04-03T14:23:29;20.40;42.00
32753;DHT22;19121;52.428;10.816;2023-04-03T14:25:55;20.40;42.00
32753;DHT22;19121;52.428;10.816;2023-04-03T14:28:21;20.40;42.10
32753;DHT22;19121;52.428;10.816;2023-04-03T14:30:48;20.50;42.00
32753;DHT22;19121;52.428;10.816;2023-04-03T14:33:16;20.40;42.00
32753;DHT22;19121;52.428;10.816;2023-04-03T14:35:42;20.40;41.90
32753;DHT22;19121;52.428;10.816;2023-04-03T14:41:09;20.40;42.00
32753;DHT22;19121;52.428;10.816;2023-04-03T14:43:35;20.40;42.00
32753;DHT22;19121;52.428;10.816;2023-04-03T14:46:01;20.40;42.00
32753;DHT22;19121;52.428;10.816;2023-04-03T14:48:27;20.40;42.00
32753;DHT22;19121;52.428;10.816;2023-04-03T14:50:52;20.40;41.90
32753;DHT22;19121;52.428;10.816;2023-04-03T14:53:18;20.40;41.90
32753;DHT22;19121;52.428;10.816;2023-04-03T14:55:48;20.40;41.90
32753;DHT22;19121;52.428;10.816;2023-04-03T14:58:14;20.40;41.80
32753;DHT22;19121;52.428;10.816;2023-04-03T15:00:40;20.40;41.80
32753;DHT22;19121;52.428;10.816;2023-04-03T15:03:08;20.40;41.80
32753;DHT22;19121;52.428;10.816;2023-04-03T15:05:34;20.40;41.80
32753;DHT22;19121;52.428;10.816;2023-04-03T15:08:00;20.40;42.00
32753;DHT22;19121;52.428;10.816;2023-04-03T15:10:27;20.40;42.00
32753;DHT22;19121;52.428;10.816;2023-04-03T15:12:53;20.40;42.10
32753;DHT22;19121;52.428;10.816;2023-04-03T15:15:19;20.40;42.00
32753;DHT22;19121;52.428;10.816;2023-04-03T15:17:45;20.40;42.00
32753;DHT22;19121;52.428;10.816;2023-04-03T15:20:16;20.40;42.00
32753;DHT22;19121;52.428;10.816;2023-04-03T15:22:42;20.40;41.70
32753;DHT22;19121;52.428;10.816;2023-04-03T15:25:07;20.40;41.70
32753;DHT22;19121;52.428;10.816;2023-04-03T15:27:33;20.40;41.70
32753;DHT22;19121;52.428;10.816;2023-04-03T15:29:58;20.30;41.60
32753;DHT22;19121;52.428;10.816;2023-04-03T15:32:24;20.30;41.50
32753;DHT22;19121;52.428;10.816;2023-04-03T15:34:49;20.30;41.20
32753;DHT22;19121;52.428;10.816;2023-04-03T15:37:15;20.30;41.00
32753;DHT22;19121;52.428;10.816;2023-04-03T15:39:40;20.30;40.70
32753;DHT22;19121;52.428;10.816;2023-04-03T15:42:05;20.30;40.60
32753;DHT22;19121;52.428;10.816;2023-04-03T15:44:32;20.30;40.60
32753;DHT22;19121;52.428;10.816;2023-04-03T15:46:57;20.30;40.50
32753;DHT22;19121;52.428;10.816;2023-04-03T15:49:23;20.30;40.50
32753;DHT22;19121;52.428;10.816;2023-04-03T15:51:48;20.20;40.50
32753;DHT22;19121;52.428;10.816;2023-04-03T15:54:14;20.20;40.50
32753;DHT22;19121;52.428;10.816;2023-04-03T15:56:40;20.20;40.50
32753;DHT22;19121;52.428;10.816;2023-04-03T15:59:05;20.20;40.60
32753;DHT22;19121;52.428;10.816;2023-04-03T16:01:31;20.20;40.60
32753;DHT22;19121;52.428;10.816;2023-04-03T16:03:56;20.20;40.60
32753;DHT22;19121;52.428;10.816;2023-04-03T16:06:22;20.20;40.60
32753;DHT22;19121;52.428;10.816;2023-04-03T16:08:49;20.20;40.70
32753;DHT22;19121;52.428;10.816;2023-04-03T16:11:14;20.20;40.60
32753;DHT22;19121;52.428;10.816;2023-04-03T16:13:40;20.20;40.70
32753;DHT22;19121;52.428;10.816;2023-04-03T16:16:05;20.20;40.70
32753;DHT22;19121;52.428;10.816;2023-04-03T16:18:31;20.20;40.70
32753;DHT22;19121;52.428;10.816;2023-04-03T16:20:59;20.20;40.70
32753;DHT22;19121;52.428;10.816;2023-04-03T16:23:24;20.10;40.70
32753;DHT22;19121;52.428;10.816;2023-04-03T16:25:50;20.10;40.70
32753;DHT22;19121;52.428;10.816;2023-04-03T16:28:16;20.10;40.80